createdAt,value
2018-12-29T00:02:23.932Z,87.10
2018-12-29T00:04:52.167Z,87.60
2018-12-29T00:07:20.314Z,88.40
2018-12-29T00:09:48.482Z,86.70
2018-12-29T00:12:17.267Z,86.40
2018-12-29T00:14:45.434Z,83.60
2018-12-29T00:17:13.652Z,82.50
2018-12-29T00:19:41.795Z,82.20
2018-12-29T00:22:09.932Z,82.30
2018-12-29T00:24:38.542Z,80.80
2018-12-29T00:27:06.663Z,80.70
2018-12-29T00:29:34.929Z,80.40
2018-12-29T00:32:05.107Z,81.80
2018-12-29T00:34:33.590Z,83.50
2018-12-29T00:37:02.802Z,82.20
2018-12-29T00:39:30.962Z,82.90
2018-12-29T00:41:59.120Z,84.90
2018-12-29T00:44:27.319Z,84.90
2018-12-29T00:46:56.504Z,85.80
2018-12-29T00:49:24.684Z,85.50
2018-12-29T00:51:53.415Z,84.80
2018-12-29T00:54:24.608Z,83.30
2018-12-29T00:56:54.739Z,82.80
2018-12-29T00:59:22.887Z,83.90
2018-12-29T01:01:52.095Z,83.80
2018-12-29T01:04:21.317Z,84.10
2018-12-29T01:06:49.720Z,83.80
2018-12-29T01:09:19.175Z,84.60
2018-12-29T01:11:49.305Z,85.40
2018-12-29T01:14:19.208Z,85.40
2018-12-29T01:16:51.533Z,85.00
2018-12-29T01:19:21.236Z,85.10
2018-12-29T01:21:50.387Z,84.70
2018-12-29T01:24:18.570Z,85.50
2018-12-29T01:26:46.732Z,85.40
2018-12-29T01:29:14.869Z,84.90
2018-12-29T01:31:43.311Z,83.90
2018-12-29T01:34:11.456Z,82.70
2018-12-29T01:36:40.173Z,82.10
2018-12-29T01:39:09.372Z,82.10
2018-12-29T01:41:39.578Z,83.10
2018-12-29T01:44:07.748Z,84.20
2018-12-29T01:46:35.898Z,85.60
2018-12-29T01:49:04.078Z,84.90
2018-12-29T01:51:32.260Z,85.50
2018-12-29T01:54:00.688Z,85.20
2018-12-29T01:56:28.846Z,85.40
2018-12-29T01:58:57.010Z,86.40
2018-12-29T02:01:25.166Z,86.70
2018-12-29T02:03:53.624Z,86.50
2018-12-29T02:06:22.854Z,85.10
2018-12-29T02:08:51.016Z,84.40
2018-12-29T02:11:20.204Z,83.30
2018-12-29T02:13:49.102Z,84.00
2018-12-29T02:16:17.273Z,82.50
2018-12-29T02:18:45.446Z,82.50
2018-12-29T02:21:13.884Z,84.00
2018-12-29T02:23:44.066Z,84.00
2018-12-29T02:26:12.496Z,83.60
2018-12-29T02:28:40.691Z,83.10
2018-12-29T02:31:08.863Z,83.10
2018-12-29T02:33:38.082Z,83.40
2018-12-29T02:36:06.483Z,82.50
2018-12-29T02:38:34.619Z,81.80
2018-12-29T02:41:02.806Z,81.60
2018-12-29T02:43:30.911Z,81.90
2018-12-29T02:45:59.048Z,82.40
2018-12-29T02:48:27.265Z,82.90
2018-12-29T02:50:55.382Z,82.80
2018-12-29T02:53:24.554Z,81.70
2018-12-29T02:55:53.779Z,82.50
2018-12-29T02:58:21.949Z,83.60
2018-12-29T03:00:52.075Z,83.60
2018-12-29T03:03:20.470Z,83.60
2018-12-29T03:05:49.347Z,83.80
2018-12-29T03:08:17.517Z,84.00
2018-12-29T03:10:45.681Z,85.50
2018-12-29T03:13:14.232Z,86.20
2018-12-29T03:15:42.669Z,85.60
2018-12-29T03:18:10.819Z,84.70
2018-12-29T03:20:39.000Z,83.60
2018-12-29T03:23:07.172Z,83.30
2018-12-29T03:25:35.366Z,83.80
2018-12-29T03:28:04.783Z,82.90
2018-12-29T03:30:33.170Z,82.30
2018-12-29T03:33:02.326Z,81.30
2018-12-29T03:35:30.501Z,80.50
2018-12-29T03:37:58.662Z,80.60
2018-12-29T03:40:26.821Z,81.50
2018-12-29T03:42:55.314Z,80.70
2018-12-29T03:45:23.591Z,80.90
2018-12-29T03:47:51.773Z,81.00
2018-12-29T03:50:20.654Z,81.10
2018-12-29T03:52:48.833Z,81.50
2018-12-29T03:55:17.240Z,82.80
2018-12-29T03:57:45.383Z,82.80
2018-12-29T04:00:13.553Z,82.90
2018-12-29T04:02:41.660Z,82.50
2018-12-29T04:05:09.795Z,83.50
2018-12-29T04:07:37.974Z,82.40
2018-12-29T04:10:11.194Z,81.10
2018-12-29T04:12:41.216Z,81.20
2018-12-29T04:15:09.337Z,80.70
2018-12-29T04:17:38.593Z,81.60
2018-12-29T04:20:07.038Z,81.30
2018-12-29T04:22:35.210Z,81.10
2018-12-29T04:25:03.378Z,81.40
2018-12-29T04:27:31.866Z,81.10
2018-12-29T04:30:00.252Z,82.10
2018-12-29T04:32:28.418Z,81.40
2018-12-29T04:34:57.599Z,82.30
2018-12-29T04:37:25.765Z,82.80
2018-12-29T04:39:54.224Z,82.40
2018-12-29T04:42:22.436Z,82.40
2018-12-29T04:44:53.703Z,82.40
2018-12-29T04:47:21.822Z,81.20
2018-12-29T04:49:50.030Z,80.30
2018-12-29T04:52:18.198Z,81.20
2018-12-29T04:54:46.388Z,80.90
2018-12-29T04:57:14.547Z,80.30
2018-12-29T04:59:42.724Z,80.80
2018-12-29T05:02:10.941Z,81.60
2018-12-29T05:04:39.335Z,81.80
2018-12-29T05:07:07.531Z,81.90
2018-12-29T05:09:35.752Z,81.50
2018-12-29T05:12:03.890Z,81.70
2018-12-29T05:14:32.066Z,82.20
2018-12-29T05:17:00.509Z,83.40
2018-12-29T05:19:29.638Z,83.30
2018-12-29T05:21:57.827Z,83.00
2018-12-29T05:24:29.571Z,82.10
2018-12-29T05:26:57.749Z,81.10
2018-12-29T05:29:25.919Z,80.50
2018-12-29T05:31:54.131Z,82.20
2018-12-29T05:34:22.580Z,82.60
2018-12-29T05:36:51.794Z,83.60
2018-12-29T05:39:20.256Z,84.90
2018-12-29T05:41:48.716Z,85.30
2018-12-29T05:44:17.143Z,85.90
2018-12-29T05:46:45.287Z,85.80
2018-12-29T05:49:13.460Z,84.90
2018-12-29T05:51:42.212Z,84.00
2018-12-29T05:54:10.449Z,84.10
2018-12-29T05:56:38.599Z,83.10
2018-12-29T05:59:06.750Z,82.10
2018-12-29T06:01:34.943Z,84.20
2018-12-29T06:04:03.109Z,83.30
2018-12-29T06:06:31.282Z,83.30
2018-12-29T06:09:00.719Z,82.80
2018-12-29T06:11:28.854Z,83.70
2018-12-29T06:13:59.247Z,84.70
2018-12-29T06:16:34.230Z,82.90
2018-12-29T06:19:02.378Z,83.10
2018-12-29T06:21:30.590Z,82.00
2018-12-29T06:23:58.723Z,82.20
2018-12-29T06:26:26.884Z,83.40
2018-12-29T06:28:55.080Z,82.50
2018-12-29T06:31:23.557Z,84.10
2018-12-29T06:33:53.912Z,82.90
2018-12-29T06:36:22.300Z,81.60
2018-12-29T06:38:50.476Z,81.70
2018-12-29T06:41:18.618Z,82.50
2018-12-29T06:43:46.807Z,82.50
2018-12-29T06:46:59.210Z,84.60
2018-12-29T06:49:28.481Z,84.40
2018-12-29T06:51:58.621Z,87.30
2018-12-29T06:54:27.880Z,87.60
2018-12-29T06:56:56.087Z,88.80
2018-12-29T06:59:24.288Z,87.70
2018-12-29T07:01:52.702Z,88.20
2018-12-29T07:04:20.825Z,87.60
2018-12-29T07:06:49.280Z,87.10
2018-12-29T07:09:17.470Z,87.50
2018-12-29T07:11:45.640Z,87.60
2018-12-29T07:14:13.820Z,87.50
2018-12-29T07:16:42.424Z,87.40
2018-12-29T07:19:10.158Z,87.70
2018-12-29T07:21:38.339Z,88.10
2018-12-29T07:24:06.511Z,87.30
2018-12-29T07:26:34.690Z,88.10
2018-12-29T07:29:04.155Z,88.80
2018-12-29T07:31:31.235Z,88.10
2018-12-29T07:34:00.722Z,86.70
2018-12-29T07:36:30.857Z,87.20
2018-12-29T07:38:59.343Z,86.20
2018-12-29T07:41:27.508Z,86.10
2018-12-29T07:43:55.677Z,86.10
2018-12-29T07:46:24.778Z,85.30
2018-12-29T07:48:58.953Z,84.80
2018-12-29T07:51:27.193Z,83.10
2018-12-29T07:53:55.325Z,81.90
2018-12-29T07:56:23.515Z,81.30
2018-12-29T07:58:51.672Z,81.10
2018-12-29T08:01:21.848Z,82.50
2018-12-29T08:03:50.003Z,83.20
2018-12-29T08:06:18.172Z,82.10
2018-12-29T08:08:46.320Z,82.70
2018-12-29T08:11:14.443Z,82.60
2018-12-29T08:13:44.849Z,83.80
2018-12-29T08:16:12.993Z,85.40
2018-12-29T08:18:41.177Z,84.20
2018-12-29T08:21:10.762Z,84.80
2018-12-29T08:23:38.948Z,84.50
2018-12-29T08:26:08.175Z,83.40
2018-12-29T08:28:36.591Z,84.00
2018-12-29T08:31:04.939Z,84.30
2018-12-29T08:33:33.490Z,84.50
2018-12-29T08:36:01.670Z,84.70
2018-12-29T08:38:30.876Z,85.90
2018-12-29T08:41:01.080Z,85.40
2018-12-29T08:43:30.533Z,85.40
2018-12-29T08:45:58.715Z,86.60
2018-12-29T08:48:28.902Z,86.40
2018-12-29T08:51:04.950Z,86.10
2018-12-29T08:53:34.143Z,84.70
2018-12-29T08:56:02.561Z,84.70
2018-12-29T08:58:39.724Z,83.20
2018-12-29T09:01:07.865Z,83.60
2018-12-29T09:03:39.040Z,84.00
2018-12-29T09:06:09.534Z,85.10
2018-12-29T09:08:37.966Z,86.20
2018-12-29T09:11:08.156Z,85.80
2018-12-29T09:13:36.533Z,85.20
2018-12-29T09:16:06.198Z,85.10
2018-12-29T09:18:34.429Z,85.80
2018-12-29T09:21:02.590Z,86.40
2018-12-29T09:23:30.813Z,85.20
2018-12-29T09:26:04.887Z,84.00
2018-12-29T09:28:34.089Z,84.00
2018-12-29T09:31:04.285Z,82.10
2018-12-29T09:33:36.500Z,83.30
2018-12-29T09:36:05.668Z,84.50
2018-12-29T09:38:35.113Z,85.30
2018-12-29T09:41:04.332Z,85.50
2018-12-29T09:43:39.429Z,86.20
2018-12-29T09:46:08.883Z,86.20
2018-12-29T09:48:43.922Z,86.50
2018-12-29T09:51:12.158Z,85.80
2018-12-29T09:53:42.318Z,85.40
2018-12-29T09:56:12.554Z,85.80
2018-12-29T09:58:43.977Z,84.80
2018-12-29T10:01:13.119Z,83.90
2018-12-29T10:03:43.337Z,84.40
2018-12-29T10:06:22.535Z,84.80
2018-12-29T10:08:50.805Z,84.40
2018-12-29T10:11:19.520Z,84.60
2018-12-29T10:13:49.996Z,85.40
2018-12-29T10:16:19.150Z,85.30
2018-12-29T10:18:52.308Z,85.10
2018-12-29T10:21:20.610Z,84.90
2018-12-29T10:23:48.770Z,85.50
2018-12-29T10:26:16.979Z,85.50
2018-12-29T10:28:45.257Z,86.50
2018-12-29T10:31:15.732Z,86.30
2018-12-29T10:33:44.944Z,87.00
2018-12-29T10:36:19.459Z,86.40
2018-12-29T10:38:52.198Z,86.60
2018-12-29T10:41:24.440Z,85.00
2018-12-29T10:43:52.591Z,84.80
2018-12-29T10:46:20.848Z,85.00
2018-12-29T10:48:50.196Z,85.00
2018-12-29T10:51:18.388Z,83.90
2018-12-29T10:53:46.804Z,83.00
2018-12-29T10:56:15.040Z,82.90
2018-12-29T10:58:44.574Z,83.70
2018-12-29T11:01:14.801Z,84.00
2018-12-29T11:03:43.068Z,83.50
2018-12-29T11:06:12.288Z,83.60
2018-12-29T11:08:42.913Z,83.50
2018-12-29T11:11:12.278Z,81.50
2018-12-29T11:13:40.548Z,81.30
2018-12-29T11:16:12.511Z,83.00
2018-12-29T11:18:40.747Z,83.50
2018-12-29T11:21:10.294Z,84.30
2018-12-29T11:23:41.903Z,83.60
2018-12-29T11:26:10.418Z,84.00
2018-12-29T11:28:38.919Z,82.10
2018-12-29T11:31:09.148Z,82.60
2018-12-29T11:33:37.756Z,81.00
2018-12-29T11:36:14.077Z,81.00
2018-12-29T11:38:42.565Z,81.10
2018-12-29T11:41:21.689Z,83.10
2018-12-29T11:43:50.895Z,84.40
2018-12-29T11:46:19.221Z,84.30
2018-12-29T11:48:51.393Z,85.20
2018-12-29T11:51:21.651Z,85.30
2018-12-29T11:53:50.826Z,84.60
2018-12-29T11:56:20.280Z,84.30
2018-12-29T11:58:49.576Z,84.50
2018-12-29T12:01:21.770Z,84.20
2018-12-29T12:03:51.122Z,83.90
2018-12-29T12:06:30.992Z,83.90
2018-12-29T12:09:01.673Z,83.50
2018-12-29T12:11:31.928Z,82.80
2018-12-29T12:14:02.142Z,83.40
2018-12-29T12:16:31.365Z,83.40
2018-12-29T12:19:00.066Z,84.00
2018-12-29T12:21:28.330Z,85.40
2018-12-29T12:23:57.670Z,85.30
2018-12-29T12:26:28.305Z,84.20
2018-12-29T12:28:56.497Z,83.10
2018-12-29T12:31:25.042Z,83.70
2018-12-29T12:33:55.465Z,84.10
2018-12-29T12:36:31.722Z,83.60
2018-12-29T12:39:01.183Z,83.20
2018-12-29T12:41:37.215Z,84.40
2018-12-29T12:44:05.416Z,84.50
2018-12-29T12:47:00.767Z,84.00
2018-12-29T12:49:28.997Z,83.50
2018-12-29T12:52:00.329Z,84.80
2018-12-29T12:54:51.345Z,84.10
2018-12-29T12:57:22.684Z,85.20
2018-12-29T13:00:23.777Z,85.20
2018-12-29T13:03:54.117Z,85.70
2018-12-29T13:09:36.998Z,86.40
2018-12-29T13:12:11.110Z,86.60
2018-12-29T13:14:43.807Z,86.90
2018-12-29T13:17:29.360Z,87.00
2018-12-29T13:20:02.719Z,87.30
2018-12-29T13:22:31.869Z,86.80
2018-12-29T13:25:06.708Z,86.40
2018-12-29T13:27:37.927Z,87.10
2018-12-29T13:30:12.619Z,87.10
2018-12-29T13:32:47.220Z,88.10
2018-12-29T13:35:39.480Z,86.30
2018-12-29T13:38:15.777Z,85.80
2018-12-29T13:41:03.348Z,86.30
2018-12-29T13:43:37.184Z,85.90
2018-12-29T13:46:17.125Z,84.40
2018-12-29T13:49:03.760Z,84.80
2018-12-29T13:51:39.900Z,85.20
2018-12-29T13:55:06.850Z,85.60
2018-12-29T13:57:41.004Z,86.70
2018-12-29T14:00:12.927Z,87.50
2018-12-29T14:02:43.489Z,87.60
2018-12-29T14:05:16.487Z,87.00
2018-12-29T14:07:48.763Z,86.80
2018-12-29T14:10:17.972Z,87.70
2018-12-29T14:13:16.445Z,88.20
2018-12-29T14:15:45.875Z,88.10
2018-12-29T14:18:28.843Z,86.50
2018-12-29T14:21:07.259Z,86.60
2018-12-29T14:23:35.805Z,85.70
2018-12-29T14:26:14.009Z,85.00
2018-12-29T14:29:05.421Z,85.70
2018-12-29T14:31:34.736Z,86.10
2018-12-29T14:34:04.012Z,85.90
2018-12-29T14:36:37.358Z,86.60
2018-12-29T14:39:16.743Z,86.50
2018-12-29T14:41:53.985Z,87.10
2018-12-29T14:44:32.388Z,85.50
2018-12-29T14:47:08.724Z,85.10
2018-12-29T14:49:49.499Z,84.60
2018-12-29T14:52:37.625Z,85.20
2018-12-29T14:55:11.920Z,86.80
2018-12-29T14:57:43.427Z,84.70
2018-12-29T15:00:19.100Z,84.20
2018-12-29T15:03:11.511Z,84.60
2018-12-29T15:05:52.926Z,84.20
2018-12-29T15:08:30.022Z,83.70
2018-12-29T15:11:02.877Z,85.00
2018-12-29T15:13:55.459Z,85.10
2018-12-29T15:16:29.520Z,84.10
2018-12-29T15:18:57.669Z,83.00
2018-12-29T15:21:29.369Z,83.70
2018-12-29T15:24:09.004Z,83.90
2018-12-29T15:26:38.129Z,84.60
2018-12-29T15:29:08.299Z,85.60
2018-12-29T15:31:46.102Z,86.40
2018-12-29T15:34:15.663Z,86.60
2018-12-29T15:36:52.757Z,87.40
2018-12-29T15:39:31.729Z,87.10
2018-12-29T15:42:18.528Z,86.20
2018-12-29T15:44:54.733Z,85.30
2018-12-29T15:51:02.084Z,84.70
2018-12-29T15:53:45.182Z,83.90
2018-12-29T15:56:40.049Z,84.70
2018-12-29T15:59:15.185Z,85.20
2018-12-29T16:01:45.361Z,85.80
2018-12-29T16:04:14.589Z,85.90
2018-12-29T16:06:44.051Z,85.20
2018-12-29T16:09:16.237Z,86.60
2018-12-29T16:11:44.463Z,86.90
2018-12-29T16:14:15.187Z,86.50
2018-12-29T16:16:45.408Z,86.90
2018-12-29T16:19:14.598Z,86.00
2018-12-29T16:21:43.030Z,85.50
2018-12-29T16:24:11.233Z,84.70
2018-12-29T16:26:39.408Z,84.50
2018-12-29T16:29:14.860Z,83.90
2018-12-29T16:31:45.354Z,84.10
2018-12-29T16:34:15.513Z,85.00
2018-12-29T16:36:43.664Z,84.70
2018-12-29T16:39:11.869Z,84.90
2018-12-29T16:41:39.990Z,84.50
2018-12-29T16:44:08.457Z,85.00
2018-12-29T16:46:36.659Z,85.80
2018-12-29T16:49:08.520Z,85.50
2018-12-29T16:51:37.712Z,85.80
2018-12-29T16:54:05.938Z,85.20
2018-12-29T16:56:34.161Z,85.50
2018-12-29T16:59:06.320Z,86.30
2018-12-29T17:01:36.501Z,86.80
2018-12-29T17:04:12.415Z,85.90
2018-12-29T17:06:40.593Z,85.70
2018-12-29T17:09:14.662Z,84.60
2018-12-29T17:11:52.020Z,85.20
2018-12-29T17:14:14.013Z,85.50
2018-12-29T17:16:42.446Z,85.40
2018-12-29T17:19:14.612Z,84.70
2018-12-29T17:21:38.892Z,84.40
2018-12-29T17:24:07.095Z,84.90
2018-12-29T17:26:35.957Z,85.40
2018-12-29T17:29:04.156Z,85.30
2018-12-29T17:31:32.358Z,86.10
2018-12-29T17:34:00.518Z,85.30
2018-12-29T17:36:28.962Z,85.60
2018-12-29T17:38:57.183Z,84.80
2018-12-29T17:41:33.741Z,85.00
2018-12-29T17:44:04.314Z,85.60
2018-12-29T17:46:30.365Z,85.20
2018-12-29T17:48:59.009Z,85.20
2018-12-29T17:51:27.462Z,84.80
2018-12-29T17:53:59.295Z,84.30
2018-12-29T17:56:31.717Z,84.70
2018-12-29T17:59:01.664Z,85.60
2018-12-29T18:01:32.313Z,86.80
2018-12-29T18:04:03.577Z,87.60
2018-12-29T18:06:31.768Z,87.20
2018-12-29T18:09:02.918Z,86.60
2018-12-29T18:11:33.391Z,86.20
2018-12-29T18:14:01.823Z,85.60
2018-12-29T18:16:34.747Z,85.10
2018-12-29T18:19:02.972Z,86.30
2018-12-29T18:21:31.657Z,86.70
2018-12-29T18:24:00.228Z,86.70
2018-12-29T18:26:31.937Z,86.10
2018-12-29T18:29:01.734Z,85.00
2018-12-29T18:31:28.635Z,85.20
2018-12-29T18:33:59.201Z,85.30
2018-12-29T18:36:27.381Z,85.40
2018-12-29T18:38:55.619Z,85.30
2018-12-29T18:41:23.908Z,85.00
2018-12-29T18:43:52.092Z,85.10
2018-12-29T18:46:20.516Z,85.10
2018-12-29T18:48:48.901Z,85.10
2018-12-29T18:51:19.932Z,84.50
2018-12-29T18:53:48.231Z,85.00
2018-12-29T18:56:18.668Z,85.40
2018-12-29T18:58:46.959Z,85.20
2018-12-29T19:01:41.059Z,85.00
2018-12-29T19:04:09.373Z,84.80
2018-12-29T19:06:41.529Z,84.80
2018-12-29T19:09:13.448Z,84.20
2018-12-29T19:11:40.483Z,84.60
2018-12-29T19:14:10.835Z,85.20
2018-12-29T19:16:41.085Z,84.90
2018-12-29T19:19:12.329Z,85.00
2018-12-29T19:21:43.635Z,84.10
2018-12-29T19:24:12.096Z,85.10
2018-12-29T19:26:40.269Z,85.70
2018-12-29T19:29:08.822Z,85.20
2018-12-29T19:31:44.278Z,85.70
2018-12-29T19:34:05.915Z,86.00
2018-12-29T19:36:34.106Z,86.20
2018-12-29T19:39:02.256Z,86.80
2018-12-29T19:41:31.463Z,85.90
2018-12-29T19:43:59.636Z,85.90
2018-12-29T19:46:27.804Z,86.80
2018-12-29T19:48:56.292Z,87.50
2018-12-29T19:51:24.484Z,87.90
2018-12-29T19:53:56.523Z,88.30
2018-12-29T19:56:26.645Z,88.30
2018-12-29T19:58:55.092Z,88.80
2018-12-29T20:01:24.455Z,87.40
2018-12-29T20:03:52.599Z,87.60
2018-12-29T20:06:21.078Z,87.00
2018-12-29T20:08:49.247Z,87.20
2018-12-29T20:11:17.436Z,88.10
2018-12-29T20:13:45.627Z,87.50
2018-12-29T20:16:13.777Z,87.00
2018-12-29T20:18:41.961Z,86.60
2018-12-29T20:21:10.636Z,87.20
2018-12-29T20:23:38.814Z,88.10
2018-12-29T20:26:07.213Z,87.90
2018-12-29T20:28:35.628Z,87.40
2018-12-29T20:31:03.840Z,86.90
2018-12-29T20:33:32.025Z,87.60
2018-12-29T20:36:00.201Z,87.40
2018-12-29T20:38:28.666Z,86.30
2018-12-29T20:40:57.136Z,86.00
2018-12-29T20:43:25.316Z,85.60
2018-12-29T20:45:53.472Z,85.60
2018-12-29T20:48:21.674Z,85.70
2018-12-29T20:50:49.831Z,87.10
2018-12-29T20:53:19.084Z,86.70
2018-12-29T20:55:47.178Z,87.10
2018-12-29T20:58:15.381Z,86.60
2018-12-29T21:00:43.793Z,86.40
2018-12-29T21:03:12.197Z,87.30
2018-12-29T21:05:40.323Z,88.00
2018-12-29T21:08:08.911Z,87.20
2018-12-29T21:10:39.709Z,87.30
2018-12-29T21:13:08.834Z,88.20
2018-12-29T21:15:36.990Z,87.50
2018-12-29T21:18:05.217Z,87.50
2018-12-29T21:20:33.340Z,87.80
2018-12-29T21:23:01.736Z,87.10
2018-12-29T21:25:29.892Z,86.20
2018-12-29T21:27:58.071Z,86.00
2018-12-29T21:30:26.258Z,85.80
2018-12-29T21:32:54.376Z,85.60
2018-12-29T21:35:22.607Z,86.60
2018-12-29T21:37:51.792Z,86.70
2018-12-29T21:40:19.998Z,86.50
2018-12-29T21:42:48.134Z,87.10
2018-12-29T21:45:16.302Z,87.70
2018-12-29T21:47:46.487Z,88.00
2018-12-29T21:50:14.597Z,89.30
2018-12-29T21:52:43.035Z,90.20
2018-12-29T21:55:11.268Z,90.30
2018-12-29T21:57:39.425Z,90.20
2018-12-29T22:00:08.313Z,90.00
2018-12-29T22:02:36.594Z,90.00
2018-12-29T22:05:04.962Z,90.00
2018-12-29T22:07:33.126Z,89.70
2018-12-29T22:10:01.328Z,89.30
2018-12-29T22:12:29.593Z,89.50
2018-12-29T22:14:57.854Z,89.50
2018-12-29T22:17:26.034Z,90.00
2018-12-29T22:19:55.488Z,90.10
2018-12-29T22:22:23.623Z,90.10
2018-12-29T22:24:51.788Z,90.30
2018-12-29T22:27:19.965Z,90.70
2018-12-29T22:29:49.179Z,90.90
2018-12-29T22:32:17.345Z,90.90
2018-12-29T22:34:45.513Z,90.70
2018-12-29T22:37:13.728Z,90.60
2018-12-29T22:39:41.853Z,90.40
2018-12-29T22:42:10.021Z,90.90
2018-12-29T22:44:38.808Z,91.00
2018-12-29T22:47:07.242Z,90.90
2018-12-29T22:49:35.368Z,90.90
2018-12-29T22:52:04.124Z,90.60
2018-12-29T22:54:34.527Z,90.30
2018-12-29T22:57:02.645Z,90.20
2018-12-29T22:59:30.805Z,90.20
2018-12-29T23:01:59.009Z,90.10
2018-12-29T23:04:27.449Z,90.20
2018-12-29T23:06:55.690Z,90.10
2018-12-29T23:09:23.806Z,89.30
2018-12-29T23:11:53.288Z,89.20
2018-12-29T23:14:21.496Z,89.80
2018-12-29T23:16:49.677Z,90.00
2018-12-29T23:19:17.843Z,90.40
2018-12-29T23:21:46.287Z,90.90
2018-12-29T23:24:14.396Z,90.60
2018-12-29T23:26:42.558Z,90.80
2018-12-29T23:29:10.758Z,90.90
2018-12-29T23:31:40.965Z,90.60
2018-12-29T23:34:10.057Z,90.70
2018-12-29T23:36:38.132Z,90.70
2018-12-29T23:39:06.298Z,90.50
2018-12-29T23:41:35.772Z,90.50
2018-12-29T23:44:03.979Z,90.40
2018-12-29T23:46:32.691Z,90.50
2018-12-29T23:49:00.865Z,90.30
2018-12-29T23:51:29.017Z,89.40
2018-12-29T23:53:58.222Z,89.10
2018-12-29T23:56:26.662Z,89.20
2018-12-29T23:58:54.865Z,88.70
